Luzerne, New York
Current Conditions -  °F | °C
As of 5:34 AM on Friday 24 Oct 2014 (Local Time) from KGFL Reporting Station
Light Rain Light Rain  
Wind Chill: 44°   Ceiling: 1200
Heat Index: 44°   Visibility: 10mi
Dew Point: 43°   Wind: 0mph
Humidity: 96%   Direction: NA
Pressure: 29.83"   Gusts: NA
Location:  43.3271°N, 73.8026°W
Report Text: KGFL 240934Z AUTO 00000KT 10SM -RA FEW005 BKN012 OVC017 07/06 A2983 RMK AO2 P0003 T00670061
Loading
Personal Weather Stations






























Interactive Weather Map
Tropical Storm Tracking
New forecast layout! Learn more

10-Day Weather Forecast

Advertisements
Track Severe Weather on mobile